createdAt,value
2022-10-17T00:01:06.358Z,101091.38
2022-10-17T00:03:35.211Z,101143.56
2022-10-17T00:06:08.872Z,101145.16
2022-10-17T00:08:37.473Z,101149.06
2022-10-17T00:11:08.972Z,101093.81
2022-10-17T00:13:36.620Z,101122.13
2022-10-17T00:16:04.732Z,101130.44
2022-10-17T00:18:32.539Z,101081.97
2022-10-17T00:21:00.176Z,101133.47
2022-10-17T00:23:28.789Z,101046.31
2022-10-17T00:26:05.541Z,101151.47
2022-10-17T00:28:33.488Z,101076.00
2022-10-17T00:31:03.608Z,101121.50
2022-10-17T00:33:32.988Z,101128.78
2022-10-17T00:36:09.081Z,101154.56
2022-10-17T00:38:37.087Z,101062.97
2022-10-17T00:41:05.445Z,101154.06
2022-10-17T00:44:27.307Z,101153.41
2022-10-17T00:46:59.831Z,101117.28
2022-10-17T00:49:31.404Z,101163.94
2022-10-17T00:52:02.956Z,101165.88
2022-10-17T00:54:35.832Z,101160.81
2022-10-17T00:57:04.822Z,101176.88
2022-10-17T00:59:37.829Z,101168.63
2022-10-17T01:02:08.640Z,101166.66
2022-10-17T01:04:38.179Z,101167.81
2022-10-17T01:07:06.672Z,101108.03
2022-10-17T01:09:36.842Z,101116.41
2022-10-17T01:12:11.390Z,101155.97
2022-10-17T01:14:54.244Z,101098.44
2022-10-17T01:17:39.729Z,101091.00
2022-10-17T01:20:13.585Z,101158.88
2022-10-17T01:23:00.396Z,101162.91
2022-10-17T01:25:51.287Z,101154.69
2022-10-17T01:28:56.756Z,101150.84
2022-10-17T01:31:32.598Z,101144.47
2022-10-17T01:34:12.562Z,101157.44
2022-10-17T01:37:01.029Z,101126.66
2022-10-17T01:39:45.649Z,101155.00
2022-10-17T01:42:31.907Z,101132.31
2022-10-17T01:45:13.919Z,101146.75
2022-10-17T01:47:43.414Z,101110.13
2022-10-17T01:50:20.178Z,101156.94
2022-10-17T01:52:56.744Z,101147.09
2022-10-17T01:55:39.451Z,101088.13
2022-10-17T01:58:27.126Z,101138.97
2022-10-17T02:00:57.795Z,101110.44
2022-10-17T02:03:28.081Z,101154.19
2022-10-17T02:05:56.759Z,101085.50
2022-10-17T02:08:30.054Z,101145.94
2022-10-17T02:11:06.336Z,101098.81
2022-10-17T02:14:20.471Z,101144.34
2022-10-17T02:17:06.870Z,101139.97
2022-10-17T02:19:40.191Z,101079.50
2022-10-17T02:22:38.205Z,101133.31
2022-10-17T02:25:23.096Z,101146.28
2022-10-17T02:28:18.894Z,101136.09
2022-10-17T02:30:50.824Z,101060.06
2022-10-17T02:33:25.358Z,101127.34
2022-10-17T02:36:03.031Z,101102.84
2022-10-17T02:38:32.572Z,101100.13
2022-10-17T02:41:01.162Z,101131.72
2022-10-17T02:43:30.553Z,101085.53
2022-10-17T02:45:59.356Z,101103.22
2022-10-17T02:48:49.896Z,101056.09
2022-10-17T02:51:36.626Z,101094.81
2022-10-17T02:54:28.593Z,101090.25
2022-10-17T02:57:01.996Z,101119.25
2022-10-17T03:02:06.834Z,101113.44
2022-10-17T03:04:34.717Z,101055.91
2022-10-17T03:07:02.429Z,101100.78
2022-10-17T03:09:30.180Z,101063.94
2022-10-17T03:11:58.067Z,101075.19
2022-10-17T03:14:26.132Z,101101.56
2022-10-17T03:16:53.734Z,101133.47
2022-10-17T03:19:21.506Z,101052.59
2022-10-17T03:21:49.192Z,101113.41
2022-10-17T03:24:17.628Z,101113.88
2022-10-17T03:29:14.658Z,101100.13
2022-10-17T03:31:42.540Z,101082.31
2022-10-17T03:34:11.098Z,101131.84
2022-10-17T03:36:38.915Z,101117.75
2022-10-17T03:39:07.020Z,101108.38
2022-10-17T03:41:35.792Z,101119.72
2022-10-17T03:44:03.483Z,101113.75
2022-10-17T03:46:31.895Z,101088.81
2022-10-17T03:49:01.422Z,101106.63
2022-10-17T03:51:29.556Z,101031.91
2022-10-17T03:54:03.281Z,101030.59
2022-10-17T03:56:31.072Z,101095.38
2022-10-17T03:59:14.434Z,101108.06
2022-10-17T04:01:44.566Z,101128.28
2022-10-17T04:04:13.364Z,101087.13
2022-10-17T04:06:41.836Z,101084.19
2022-10-17T04:09:11.550Z,101134.75
2022-10-17T04:11:54.680Z,101111.72
2022-10-17T04:14:23.485Z,101148.19
2022-10-17T04:16:53.616Z,101138.41
2022-10-17T04:19:22.479Z,101106.47
2022-10-17T04:21:50.987Z,101086.53
2022-10-17T04:24:20.566Z,101176.47
2022-10-17T04:27:09.746Z,101171.59
2022-10-17T04:29:41.411Z,101161.88
2022-10-17T04:32:17.650Z,101171.75
2022-10-17T04:35:05.891Z,101174.13
2022-10-17T04:37:34.233Z,101126.75
2022-10-17T04:40:07.973Z,101150.66
2022-10-17T04:42:37.075Z,101138.81
2022-10-17T04:45:05.909Z,101158.59
2022-10-17T04:47:33.713Z,101136.69
2022-10-17T04:50:01.565Z,101189.09
2022-10-17T04:52:32.339Z,101151.63
2022-10-17T04:55:00.440Z,101193.13
2022-10-17T04:57:28.188Z,101198.94
2022-10-17T05:00:13.330Z,101175.09
2022-10-17T05:02:46.851Z,101184.03
2022-10-17T05:05:15.942Z,101173.19
2022-10-17T05:07:45.762Z,101194.91
2022-10-17T05:10:18.460Z,101207.19
2022-10-17T05:12:49.684Z,101209.94
2022-10-17T05:15:19.623Z,101202.13
2022-10-17T05:17:47.386Z,101159.88
2022-10-17T05:20:15.184Z,101147.25
2022-10-17T05:22:43.038Z,101188.84
2022-10-17T05:25:12.410Z,101203.31
2022-10-17T05:27:40.053Z,101196.19
2022-10-17T05:30:09.606Z,101187.38
2022-10-17T05:32:39.525Z,101178.69
2022-10-17T05:35:08.690Z,101204.13
2022-10-17T05:37:37.805Z,101172.63
2022-10-17T05:40:06.695Z,101160.84
2022-10-17T05:42:34.392Z,101201.81
2022-10-17T05:45:03.018Z,101193.81
2022-10-17T05:47:31.584Z,101061.47
2022-10-17T05:49:59.784Z,101201.09
2022-10-17T05:52:34.684Z,101214.34
2022-10-17T05:55:10.717Z,101205.84
2022-10-17T05:57:38.631Z,101193.13
2022-10-17T06:00:10.840Z,101213.75
2022-10-17T06:02:49.591Z,101231.63
2022-10-17T06:05:19.908Z,101199.91
2022-10-17T06:07:50.205Z,101199.38
2022-10-17T06:10:19.113Z,101145.06
2022-10-17T06:12:47.046Z,101183.13
2022-10-17T06:15:15.947Z,101162.53
2022-10-17T06:17:47.778Z,101222.66
2022-10-17T06:20:15.722Z,101201.75
2022-10-17T06:22:44.458Z,101232.44
2022-10-17T06:25:17.839Z,101228.94
2022-10-17T06:27:45.587Z,101244.50
2022-10-17T06:30:13.781Z,101250.78
2022-10-17T06:32:41.409Z,101250.78
2022-10-17T06:35:09.187Z,101253.81
2022-10-17T06:37:38.003Z,101230.69
2022-10-17T06:40:12.157Z,101245.59
2022-10-17T06:42:41.196Z,101192.03
2022-10-17T06:45:34.986Z,101239.13
2022-10-17T06:48:22.902Z,101239.44
2022-10-17T06:50:54.548Z,101257.41
2022-10-17T06:53:30.930Z,101263.31
2022-10-17T06:56:11.641Z,101223.63
2022-10-17T06:58:50.939Z,101237.31
2022-10-17T07:01:31.710Z,101274.16
2022-10-17T07:04:01.339Z,101291.16
2022-10-17T07:06:30.631Z,101275.72
2022-10-17T07:09:03.035Z,101234.19
2022-10-17T07:11:31.150Z,101249.31
2022-10-17T07:13:59.024Z,101313.69
2022-10-17T07:16:26.827Z,101273.31
2022-10-17T07:19:04.920Z,101253.47
2022-10-17T07:21:39.003Z,101316.63
2022-10-17T07:24:08.473Z,101282.03
2022-10-17T07:26:36.765Z,101338.31
2022-10-17T07:29:06.625Z,101339.13
2022-10-17T07:31:38.843Z,101325.13
2022-10-17T07:34:06.472Z,101308.59
2022-10-17T07:36:34.224Z,101337.75
2022-10-17T07:39:05.304Z,101362.28
2022-10-17T07:41:34.058Z,101336.72
2022-10-17T07:44:01.832Z,101367.47
2022-10-17T07:46:35.139Z,101308.69
2022-10-17T07:49:02.956Z,101367.47
2022-10-17T07:51:30.723Z,101378.34
2022-10-17T07:53:58.373Z,101379.47
2022-10-17T07:56:26.053Z,101345.25
2022-10-17T07:58:54.204Z,101380.78
2022-10-17T08:01:22.016Z,101333.66
2022-10-17T08:03:49.637Z,101387.09
2022-10-17T08:06:17.587Z,101390.97
2022-10-17T08:08:45.326Z,101386.78
2022-10-17T08:11:14.527Z,101367.16
2022-10-17T08:13:42.601Z,101354.47
2022-10-17T08:16:12.393Z,101361.31
2022-10-17T08:18:41.721Z,101384.47
2022-10-17T08:21:10.233Z,101387.41
2022-10-17T08:23:38.078Z,101377.47
2022-10-17T08:26:10.711Z,101391.47
2022-10-17T08:28:39.956Z,101406.22
2022-10-17T08:31:13.916Z,101397.09
2022-10-17T08:33:42.591Z,101413.34
2022-10-17T08:36:12.638Z,101405.22
2022-10-17T08:38:43.744Z,101395.97
2022-10-17T08:41:20.588Z,101414.78
2022-10-17T08:43:58.009Z,101413.66
2022-10-17T08:46:33.237Z,101421.28
2022-10-17T08:49:05.678Z,101368.56
2022-10-17T08:51:41.331Z,101397.63
2022-10-17T08:54:43.409Z,101432.09
2022-10-17T08:57:16.731Z,101390.06
2022-10-17T08:59:46.332Z,101433.81
2022-10-17T09:02:42.080Z,101431.06
2022-10-17T09:05:26.571Z,101446.97
2022-10-17T09:08:19.565Z,101439.53
2022-10-17T09:10:58.857Z,101423.63
2022-10-17T09:13:54.185Z,101434.31
2022-10-17T09:16:46.935Z,101436.47
2022-10-17T09:19:23.194Z,101434.84
2022-10-17T09:22:06.391Z,101414.19
2022-10-17T09:24:48.382Z,101385.88
2022-10-17T09:27:23.720Z,101437.75
2022-10-17T09:29:55.674Z,101439.38
2022-10-17T09:32:25.841Z,101389.31
2022-10-17T09:34:54.041Z,101426.78
2022-10-17T09:37:30.180Z,101427.78
2022-10-17T09:39:58.552Z,101431.84
2022-10-17T09:42:28.182Z,101407.88
2022-10-17T09:45:04.957Z,101442.03
2022-10-17T09:47:52.727Z,101354.47
2022-10-17T09:50:26.762Z,101412.25
2022-10-17T09:52:55.835Z,101444.78
2022-10-17T09:55:37.615Z,101451.56
2022-10-17T09:58:07.378Z,101444.78
2022-10-17T10:00:44.057Z,101421.31
2022-10-17T10:03:17.861Z,101452.31
2022-10-17T10:06:13.437Z,101459.59
2022-10-17T10:08:53.393Z,101437.44
2022-10-17T10:11:44.499Z,101465.84
2022-10-17T10:14:19.887Z,101445.53
2022-10-17T10:16:48.321Z,101479.00
2022-10-17T10:19:28.008Z,101458.31
2022-10-17T10:22:00.626Z,101457.59
2022-10-17T10:24:31.058Z,101458.94
2022-10-17T10:27:03.198Z,101401.84
2022-10-17T10:29:37.024Z,101414.19
2022-10-17T10:32:22.919Z,101430.97
2022-10-17T10:35:03.919Z,101408.69
2022-10-17T10:37:41.351Z,101449.34
2022-10-17T10:40:18.673Z,101441.38
2022-10-17T10:42:51.893Z,101409.56
2022-10-17T10:48:26.705Z,101419.53
2022-10-17T10:50:54.301Z,101427.34
2022-10-17T10:53:45.880Z,101432.84
2022-10-17T10:56:20.946Z,101434.75
2022-10-17T10:59:02.067Z,101433.94
2022-10-17T11:01:47.037Z,101416.72
2022-10-17T11:04:45.091Z,101439.16
2022-10-17T11:07:15.768Z,101440.00
2022-10-17T11:09:58.610Z,101406.34
2022-10-17T11:15:17.469Z,101441.00
2022-10-17T11:18:02.986Z,101445.03
2022-10-17T11:20:44.792Z,101305.25
2022-10-17T11:23:19.961Z,101444.22
2022-10-17T11:25:50.908Z,101394.84
2022-10-17T11:28:20.590Z,101447.19
2022-10-17T11:31:11.711Z,101432.75
2022-10-17T11:33:39.361Z,101438.63
2022-10-17T11:36:09.968Z,101427.28
2022-10-17T11:38:52.759Z,101415.44
2022-10-17T11:41:40.407Z,101347.69
2022-10-17T11:44:29.015Z,101427.28
2022-10-17T11:47:28.529Z,101355.00
2022-10-17T11:53:14.660Z,101425.56
2022-10-17T11:55:43.626Z,101386.38
2022-10-17T11:58:17.007Z,101414.22
2022-10-17T12:01:03.355Z,101409.22
2022-10-17T12:03:40.234Z,101403.72
2022-10-17T12:06:17.520Z,101402.59
2022-10-17T12:08:50.022Z,101390.78
2022-10-17T12:11:50.956Z,101384.47
2022-10-17T12:14:43.052Z,101391.25
2022-10-17T12:17:36.976Z,101383.81
2022-10-17T12:20:26.426Z,101394.81
2022-10-17T12:23:03.444Z,101398.69
2022-10-17T12:25:39.120Z,101371.91
2022-10-17T12:28:18.851Z,101376.00
2022-10-17T12:31:15.777Z,101400.03
2022-10-17T12:33:47.166Z,101396.47
2022-10-17T12:36:27.926Z,101401.97
2022-10-17T12:39:03.753Z,101403.06
2022-10-17T12:41:40.644Z,101393.19
2022-10-17T12:44:14.569Z,101407.75
2022-10-17T12:46:49.457Z,101359.03
2022-10-17T12:49:43.481Z,101399.78
2022-10-17T12:52:17.360Z,101402.91
2022-10-17T12:55:00.327Z,101381.28
2022-10-17T12:58:03.348Z,101391.72
2022-10-17T13:01:33.309Z,101386.84
2022-10-17T13:03:56.011Z,101395.78
2022-10-17T13:06:29.775Z,101323.38
2022-10-17T13:09:17.852Z,101378.97
2022-10-17T13:11:45.743Z,101333.47
2022-10-17T13:14:16.662Z,101318.56
2022-10-17T13:16:53.651Z,101313.72
2022-10-17T13:19:24.535Z,101317.78
2022-10-17T13:21:59.825Z,101344.94
2022-10-17T13:24:37.293Z,101296.97
2022-10-17T13:27:08.312Z,101346.03
2022-10-17T13:29:43.930Z,101328.06
2022-10-17T13:32:12.530Z,101329.16
2022-10-17T13:34:40.208Z,101349.47
2022-10-17T13:37:13.813Z,101330.41
2022-10-17T13:39:56.588Z,101351.09
2022-10-17T13:42:27.681Z,101354.47
2022-10-17T13:44:56.232Z,101357.72
2022-10-17T13:47:27.143Z,101365.16
2022-10-17T13:49:55.898Z,101360.31
2022-10-17T13:52:29.491Z,101362.56
2022-10-17T13:55:12.527Z,101319.06
2022-10-17T13:57:41.875Z,101336.84
2022-10-17T14:00:21.994Z,101282.25
2022-10-17T14:02:49.715Z,101323.75
2022-10-17T14:05:20.410Z,101340.91
2022-10-17T14:08:15.259Z,101347.19
2022-10-17T14:10:45.368Z,101310.47
2022-10-17T14:13:26.677Z,101330.50
2022-10-17T14:15:56.580Z,101355.97
2022-10-17T14:18:36.592Z,101290.19
2022-10-17T14:24:13.980Z,101362.09
2022-10-17T14:26:53.610Z,101358.53
2022-10-17T14:29:24.972Z,101368.72
2022-10-17T14:32:02.947Z,101371.47
2022-10-17T14:34:34.784Z,101320.94
2022-10-17T14:37:08.760Z,101355.84
2022-10-17T14:39:37.847Z,101383.47
2022-10-17T14:42:05.591Z,101382.34
2022-10-17T14:44:35.262Z,101389.78
2022-10-17T14:47:30.919Z,101385.91
2022-10-17T14:50:07.289Z,101381.66
2022-10-17T14:52:35.978Z,101390.59
2022-10-17T14:55:27.960Z,101398.53
2022-10-17T14:57:55.826Z,101404.84
2022-10-17T15:00:24.534Z,101404.84
2022-10-17T15:02:53.987Z,101404.84
2022-10-17T15:05:23.358Z,101367.66
2022-10-17T15:07:51.606Z,101403.41
2022-10-17T15:10:32.038Z,101392.84
2022-10-17T15:13:26.213Z,101382.47
2022-10-17T15:15:52.163Z,101387.00
2022-10-17T15:18:19.949Z,101400.97
2022-10-17T15:20:51.950Z,101398.84
2022-10-17T15:23:27.319Z,101383.72
2022-10-17T15:25:55.068Z,101359.34
2022-10-17T15:28:22.587Z,101358.34
2022-10-17T15:30:50.246Z,101412.97
2022-10-17T15:33:17.966Z,101366.47
2022-10-17T15:35:46.037Z,101404.84
2022-10-17T15:38:18.270Z,101389.38
2022-10-17T15:40:48.977Z,101335.75
2022-10-17T15:43:19.955Z,101376.84
2022-10-17T15:45:48.413Z,101431.72
2022-10-17T15:48:28.414Z,101426.22
2022-10-17T15:50:56.144Z,101363.16
2022-10-17T15:53:25.347Z,101399.41
2022-10-17T15:55:53.260Z,101423.72
2022-10-17T15:58:21.258Z,101344.72
2022-10-17T16:00:49.124Z,101441.84
2022-10-17T16:03:16.973Z,101445.09
2022-10-17T16:05:44.720Z,101369.34
2022-10-17T16:08:12.370Z,101425.78
2022-10-17T16:10:42.047Z,101371.84
2022-10-17T16:13:20.356Z,101430.00
2022-10-17T16:15:48.158Z,101395.47
2022-10-17T16:18:15.790Z,101448.47
2022-10-17T16:20:43.348Z,101444.44
2022-10-17T16:23:13.218Z,101435.38
2022-10-17T16:25:41.317Z,101432.41
2022-10-17T16:28:09.329Z,101412.69
2022-10-17T16:30:42.928Z,101411.72
2022-10-17T16:33:11.578Z,101415.97
2022-10-17T16:35:39.696Z,101438.72
2022-10-17T16:38:07.806Z,101384.09
2022-10-17T16:40:39.194Z,101403.25
2022-10-17T16:43:10.462Z,101373.72
2022-10-17T16:45:38.194Z,101435.00
2022-10-17T16:48:06.196Z,101434.50
2022-10-17T16:50:35.820Z,101364.94
2022-10-17T16:53:04.062Z,101366.09
2022-10-17T16:55:31.867Z,101389.47
2022-10-17T16:58:00.150Z,101427.34
2022-10-17T17:00:27.980Z,101393.34
2022-10-17T17:02:55.671Z,101396.09
2022-10-17T17:05:23.308Z,101385.34
2022-10-17T17:07:51.784Z,101414.78
2022-10-17T17:10:19.439Z,101427.78
2022-10-17T17:12:47.172Z,101442.75
2022-10-17T17:15:15.250Z,101429.19
2022-10-17T17:17:50.496Z,101445.50
2022-10-17T17:20:21.024Z,101441.97
2022-10-17T17:22:50.890Z,101410.56
2022-10-17T17:25:18.442Z,101464.19
2022-10-17T17:27:46.103Z,101460.34
2022-10-17T17:30:13.795Z,101431.72
2022-10-17T17:32:41.581Z,101465.00
2022-10-17T17:35:09.743Z,101450.22
2022-10-17T17:37:37.597Z,101467.09
2022-10-17T17:40:06.293Z,101420.66
2022-10-17T17:42:33.874Z,101434.56
2022-10-17T17:45:01.420Z,101443.31
2022-10-17T17:47:29.890Z,101459.88
2022-10-17T17:49:57.874Z,101485.09
2022-10-17T17:52:25.543Z,101434.38
2022-10-17T17:54:53.133Z,101485.09
2022-10-17T17:57:20.890Z,101489.75
2022-10-17T17:59:52.465Z,101490.88
2022-10-17T18:02:20.132Z,101468.75
2022-10-17T18:04:48.867Z,101475.44
2022-10-17T18:07:16.413Z,101483.16
2022-10-17T18:09:44.020Z,101480.13
2022-10-17T18:12:11.648Z,101460.56
2022-10-17T18:14:39.375Z,101482.25
2022-10-17T18:17:07.093Z,101424.00
2022-10-17T18:19:35.010Z,101458.78
2022-10-17T18:22:02.559Z,101445.94
2022-10-17T18:24:30.249Z,101463.00
2022-10-17T18:26:59.980Z,101435.88
2022-10-17T18:29:29.609Z,101481.09
2022-10-17T18:31:57.474Z,101462.19
2022-10-17T18:34:25.416Z,101426.81
2022-10-17T18:36:55.681Z,101478.56
2022-10-17T18:39:23.448Z,101432.69
2022-10-17T18:41:51.227Z,101454.97
2022-10-17T18:44:18.872Z,101464.75
2022-10-17T18:46:47.141Z,101474.69
2022-10-17T18:49:19.032Z,101479.88
2022-10-17T18:51:47.087Z,101476.81
2022-10-17T18:54:22.280Z,101481.50
2022-10-17T18:56:53.024Z,101477.13
2022-10-17T18:59:21.499Z,101466.88
2022-10-17T19:01:49.472Z,101439.53
2022-10-17T19:04:17.400Z,101460.34
2022-10-17T19:06:45.283Z,101482.31
2022-10-17T19:09:14.602Z,101385.78
2022-10-17T19:11:43.215Z,101469.13
2022-10-17T19:14:14.838Z,101500.75
2022-10-17T19:16:49.258Z,101507.06
2022-10-17T19:19:21.560Z,101507.06
2022-10-17T19:21:50.390Z,101498.63
2022-10-17T19:24:21.199Z,101505.13
2022-10-17T19:26:50.544Z,101519.69
2022-10-17T19:29:18.538Z,101528.75
2022-10-17T19:31:47.120Z,101490.50
2022-10-17T19:34:16.283Z,101519.38
2022-10-17T19:36:44.071Z,101530.38
2022-10-17T19:39:18.935Z,101508.19
2022-10-17T19:41:48.087Z,101523.06
2022-10-17T19:44:16.332Z,101537.63
2022-10-17T19:46:47.146Z,101549.34
2022-10-17T19:49:15.696Z,101548.13
2022-10-17T19:51:44.299Z,101562.06
2022-10-17T19:54:12.423Z,101566.75
2022-10-17T19:56:40.434Z,101563.63
2022-10-17T19:59:08.674Z,101556.06
2022-10-17T20:01:41.311Z,101581.97
2022-10-17T20:04:11.042Z,101583.91
2022-10-17T20:06:40.348Z,101579.53
2022-10-17T20:09:11.047Z,101578.50
2022-10-17T20:11:41.749Z,101579.13
2022-10-17T20:14:09.460Z,101558.13
2022-10-17T20:16:37.219Z,101590.53
2022-10-17T20:19:09.966Z,101580.34
2022-10-17T20:21:39.804Z,101478.22
2022-10-17T20:24:09.707Z,101582.06
2022-10-17T20:26:39.176Z,101591.19
2022-10-17T20:29:20.874Z,101589.09
2022-10-17T20:31:49.153Z,101587.47
2022-10-17T20:34:17.995Z,101562.38
2022-10-17T20:36:46.761Z,101575.00
2022-10-17T20:39:17.152Z,101588.28
2022-10-17T20:41:45.723Z,101607.53
2022-10-17T20:44:13.962Z,101601.22
2022-10-17T20:46:52.710Z,101598.78
2022-10-17T20:49:28.763Z,101575.47
2022-10-17T20:51:56.797Z,101598.56
2022-10-17T20:54:25.159Z,101592.75
2022-10-17T20:56:53.385Z,101586.31
2022-10-17T20:59:22.494Z,101532.13
2022-10-17T21:01:50.965Z,101563.75
2022-10-17T21:04:45.823Z,101566.50
2022-10-17T21:07:06.291Z,101552.84
2022-10-17T21:09:33.964Z,101588.75
2022-10-17T21:12:05.411Z,101559.44
2022-10-17T21:14:33.683Z,101573.81
2022-10-17T21:17:04.947Z,101599.03
2022-10-17T21:19:34.506Z,101589.97
2022-10-17T21:22:03.952Z,101503.53
2022-10-17T21:24:32.986Z,101562.09
2022-10-17T21:27:00.736Z,101560.25
2022-10-17T21:29:28.644Z,101569.75
2022-10-17T21:31:58.817Z,101560.19
2022-10-17T21:34:28.941Z,101597.34
2022-10-17T21:36:56.957Z,101531.81
2022-10-17T21:39:25.101Z,101570.56
2022-10-17T21:41:53.568Z,101603.56
2022-10-17T21:44:26.445Z,101601.63
2022-10-17T21:46:55.985Z,101599.19
2022-10-17T21:49:25.213Z,101600.31
2022-10-17T21:51:53.665Z,101575.97
2022-10-17T21:54:23.628Z,101590.13
2022-10-17T21:56:51.649Z,101618.13
2022-10-17T21:59:19.290Z,101622.31
2022-10-17T22:01:46.998Z,101594.31
2022-10-17T22:04:18.042Z,101613.25
2022-10-17T22:06:47.171Z,101625.34
2022-10-17T22:09:16.703Z,101612.69
2022-10-17T22:11:47.433Z,101595.00
2022-10-17T22:14:20.710Z,101606.38
2022-10-17T22:16:49.415Z,101597.63
2022-10-17T22:19:22.719Z,101596.81
2022-10-17T22:21:50.624Z,101525.72
2022-10-17T22:26:52.515Z,101599.56
2022-10-17T22:29:20.514Z,101566.41
2022-10-17T22:31:48.611Z,101566.72
2022-10-17T22:34:19.154Z,101596.81
2022-10-17T22:36:48.958Z,101565.50
2022-10-17T22:39:16.946Z,101603.94
2022-10-17T22:41:44.703Z,101584.22
2022-10-17T22:44:12.531Z,101582.59
2022-10-17T22:46:40.176Z,101608.44
2022-10-17T22:49:07.850Z,101604.03
2022-10-17T22:51:36.715Z,101545.34
2022-10-17T22:54:04.482Z,101552.28
2022-10-17T22:56:32.359Z,101605.50
2022-10-17T22:59:00.100Z,101575.88
2022-10-17T23:01:28.068Z,101596.03
2022-10-17T23:03:55.926Z,101600.31
2022-10-17T23:06:23.713Z,101600.31
2022-10-17T23:08:53.324Z,101565.59
2022-10-17T23:11:21.157Z,101598.06
2022-10-17T23:13:48.947Z,101598.06
2022-10-17T23:16:16.798Z,101573.63
2022-10-17T23:18:44.574Z,101579.66
2022-10-17T23:21:12.323Z,101579.53
2022-10-17T23:23:40.147Z,101558.91
2022-10-17T23:26:13.738Z,101558.03
2022-10-17T23:28:42.701Z,101565.69
2022-10-17T23:31:19.290Z,101541.28
2022-10-17T23:33:49.247Z,101564.06
2022-10-17T23:36:19.244Z,101564.66
2022-10-17T23:38:48.173Z,101548.72
2022-10-17T23:41:16.897Z,101545.34
2022-10-17T23:43:45.024Z,101557.53
2022-10-17T23:46:13.507Z,101553.97
2022-10-17T23:48:41.522Z,101553.16
2022-10-17T23:51:10.572Z,101550.41
2022-10-17T23:53:39.588Z,101485.16
2022-10-17T23:56:08.686Z,101560.59
2022-10-17T23:58:36.989Z,101555.09
